createdAt,value
2022-09-10T00:01:53.617Z,2.85
2022-09-10T00:04:20.318Z,5.53
2022-09-10T00:06:47.070Z,5.60
2022-09-10T00:09:14.118Z,5.00
2022-09-10T00:11:41.833Z,4.20
2022-09-10T00:14:13.773Z,5.15
2022-09-10T00:16:41.041Z,3.67
2022-09-10T00:19:07.926Z,4.90
2022-09-10T00:21:35.796Z,2.72
2022-09-10T00:24:05.243Z,3.30
2022-09-10T00:26:35.485Z,3.40
2022-09-10T00:29:02.497Z,3.92
2022-09-10T00:31:30.565Z,2.28
2022-09-10T00:33:58.175Z,5.20
2022-09-10T00:36:27.390Z,4.28
2022-09-10T00:38:55.585Z,4.53
2022-09-10T00:41:24.271Z,2.15
2022-09-10T00:43:52.398Z,4.20
2022-09-10T00:46:43.569Z,3.03
2022-09-10T00:49:13.566Z,1.73
2022-09-10T00:51:40.561Z,4.95
2022-09-10T00:54:07.917Z,3.75
2022-09-10T00:56:35.129Z,3.35
2022-09-10T00:59:03.200Z,6.75
2022-09-10T01:01:31.078Z,2.75
2022-09-10T01:03:57.808Z,3.97
2022-09-10T01:06:24.822Z,2.97
2022-09-10T01:08:51.530Z,2.20
2022-09-10T01:11:42.736Z,1.98
2022-09-10T01:14:28.500Z,7.07
2022-09-10T01:17:22.997Z,3.03
2022-09-10T01:20:17.887Z,2.47
2022-09-10T01:22:57.720Z,2.55
2022-09-10T01:25:46.261Z,3.67
2022-09-10T01:28:23.233Z,4.05
2022-09-10T01:30:55.751Z,4.80
2022-09-10T01:33:26.961Z,3.90
2022-09-10T01:36:07.005Z,2.45
2022-09-10T01:38:35.920Z,5.57
2022-09-10T01:41:04.736Z,5.68
2022-09-10T01:43:36.653Z,3.95
2022-09-10T01:46:16.851Z,2.97
2022-09-10T01:49:02.770Z,3.10
2022-09-10T01:52:00.564Z,4.13
2022-09-10T01:55:00.245Z,1.83
2022-09-10T01:57:37.103Z,4.35
2022-09-10T02:00:11.636Z,3.45
2022-09-10T02:03:18.393Z,2.67
2022-09-10T02:05:49.659Z,3.33
2022-09-10T02:08:21.303Z,3.15
2022-09-10T02:10:55.434Z,1.60
2022-09-10T02:13:25.508Z,3.58
2022-09-10T02:16:32.136Z,3.80
2022-09-10T02:19:00.876Z,3.53
2022-09-10T02:21:27.970Z,3.15
2022-09-10T02:23:58.834Z,5.55
2022-09-10T02:26:26.078Z,2.00
2022-09-10T02:28:53.788Z,2.80
2022-09-10T02:31:22.622Z,2.75
2022-09-10T02:33:49.882Z,2.53
2022-09-10T02:36:16.826Z,2.95
2022-09-10T02:38:44.426Z,2.85
2022-09-10T02:41:11.260Z,2.33
2022-09-10T02:43:38.350Z,5.88
2022-09-10T02:46:08.638Z,4.55
2022-09-10T02:48:36.907Z,4.57
2022-09-10T02:51:03.893Z,2.70
2022-09-10T02:53:31.854Z,4.60
2022-09-10T02:56:03.320Z,4.90
2022-09-10T02:58:34.272Z,3.33
2022-09-10T03:01:18.375Z,4.53
2022-09-10T03:03:54.059Z,3.92
2022-09-10T03:06:21.991Z,2.42
2022-09-10T03:08:49.352Z,5.72
2022-09-10T03:11:16.780Z,2.95
2022-09-10T03:13:46.176Z,3.45
2022-09-10T03:16:13.960Z,3.55
2022-09-10T03:18:43.775Z,1.92
2022-09-10T03:21:16.219Z,3.25
2022-09-10T03:23:44.986Z,3.40
2022-09-10T03:26:14.398Z,2.00
2022-09-10T03:28:43.798Z,3.42
2022-09-10T03:31:13.851Z,3.47
2022-09-10T03:33:44.560Z,2.78
2022-09-10T03:36:13.524Z,2.10
2022-09-10T03:38:41.991Z,3.58
2022-09-10T03:41:09.195Z,2.80
2022-09-10T03:43:36.042Z,4.93
2022-09-10T03:46:06.782Z,4.22
2022-09-10T03:48:39.705Z,4.22
2022-09-10T03:51:08.372Z,3.75
2022-09-10T03:53:35.100Z,5.65
2022-09-10T03:56:03.555Z,5.30
2022-09-10T03:58:31.139Z,5.30
2022-09-10T04:00:58.555Z,3.65
2022-09-10T04:03:26.067Z,4.68
2022-09-10T04:05:52.850Z,5.05
2022-09-10T04:08:20.740Z,7.60
2022-09-10T04:10:48.396Z,3.17
2022-09-10T04:13:15.994Z,4.38
2022-09-10T04:15:45.574Z,3.88
2022-09-10T04:18:12.518Z,3.28
2022-09-10T04:20:39.591Z,4.53
2022-09-10T04:23:09.565Z,3.28
2022-09-10T04:25:38.310Z,1.95
2022-09-10T04:28:05.017Z,2.50
2022-09-10T04:30:32.706Z,3.30
2022-09-10T04:33:00.939Z,5.00
2022-09-10T04:35:30.759Z,4.75
2022-09-10T04:37:58.766Z,3.33
2022-09-10T04:40:27.361Z,3.15
2022-09-10T04:42:54.405Z,2.65
2022-09-10T04:45:21.690Z,4.53
2022-09-10T04:47:49.626Z,2.92
2022-09-10T04:50:20.462Z,2.80
2022-09-10T04:53:08.063Z,3.35
2022-09-10T04:55:36.882Z,3.08
2022-09-10T04:58:03.638Z,3.38
2022-09-10T05:00:30.379Z,6.93
2022-09-10T05:02:58.042Z,3.40
2022-09-10T05:05:25.221Z,3.67
2022-09-10T05:07:53.582Z,3.75
2022-09-10T05:10:21.580Z,3.75
2022-09-10T05:12:48.459Z,4.05
2022-09-10T05:15:15.328Z,4.75
2022-09-10T05:17:42.120Z,7.85
2022-09-10T05:20:09.164Z,3.63
2022-09-10T05:22:42.447Z,5.03
2022-09-10T05:25:09.681Z,2.88
2022-09-10T05:27:37.607Z,4.68
2022-09-10T05:30:05.909Z,3.95
2022-09-10T05:32:32.861Z,2.88
2022-09-10T05:34:59.817Z,4.47
2022-09-10T05:37:27.051Z,6.25
2022-09-10T05:39:53.950Z,3.63
2022-09-10T05:42:22.356Z,5.85
2022-09-10T05:44:49.354Z,4.20
2022-09-10T05:47:16.113Z,6.38
2022-09-10T05:49:43.325Z,4.10
2022-09-10T05:52:10.060Z,3.55
2022-09-10T05:54:36.841Z,3.72
2022-09-10T05:57:04.145Z,5.70
2022-09-10T05:59:30.865Z,2.78
2022-09-10T06:01:58.334Z,4.57
2022-09-10T06:04:25.724Z,5.78
2022-09-10T06:06:52.518Z,4.38
2022-09-10T06:09:20.688Z,7.43
2022-09-10T06:11:54.604Z,4.70
2022-09-10T06:14:22.368Z,4.57
2022-09-10T06:16:50.123Z,3.67
2022-09-10T06:19:17.128Z,5.28
2022-09-10T06:21:43.917Z,4.72
2022-09-10T06:24:10.781Z,5.35
2022-09-10T06:26:41.698Z,3.60
2022-09-10T06:29:12.601Z,3.92
2022-09-10T06:31:40.922Z,4.78
2022-09-10T06:34:07.989Z,4.32
2022-09-10T06:36:35.010Z,4.75
2022-09-10T06:39:03.659Z,6.40
2022-09-10T06:41:38.791Z,2.45
2022-09-10T06:44:10.839Z,2.35
2022-09-10T06:49:31.530Z,6.03
2022-09-10T06:51:58.545Z,3.22
2022-09-10T06:54:26.585Z,2.53
2022-09-10T06:56:58.237Z,6.20
2022-09-10T06:59:25.416Z,3.60
2022-09-10T07:01:52.272Z,3.53
2022-09-10T07:04:20.725Z,3.25
2022-09-10T07:06:49.319Z,2.13
2022-09-10T07:09:16.935Z,3.97
2022-09-10T07:11:57.529Z,4.28
2022-09-10T07:14:24.579Z,3.58
2022-09-10T07:16:53.525Z,3.60
2022-09-10T07:19:23.423Z,6.93
2022-09-10T07:21:50.810Z,3.42
2022-09-10T07:24:17.609Z,5.15
2022-09-10T07:27:16.600Z,3.05
2022-09-10T07:29:43.763Z,3.63
2022-09-10T07:32:15.097Z,7.28
2022-09-10T07:34:41.860Z,2.75
2022-09-10T07:37:09.132Z,5.03
2022-09-10T07:39:36.384Z,2.63
2022-09-10T07:42:03.131Z,3.08
2022-09-10T07:44:34.755Z,3.08
2022-09-10T07:47:03.508Z,3.03
2022-09-10T07:49:32.824Z,2.80
2022-09-10T07:52:00.197Z,2.28
2022-09-10T07:54:32.622Z,3.92
2022-09-10T07:57:00.497Z,3.22
2022-09-10T07:59:27.984Z,2.35
2022-09-10T08:02:00.564Z,4.07
2022-09-10T08:04:36.767Z,1.90
2022-09-10T08:07:07.270Z,8.82
2022-09-10T08:12:26.892Z,2.55
2022-09-10T08:14:59.937Z,4.35
2022-09-10T08:17:30.384Z,1.55
2022-09-10T08:19:57.761Z,2.97
2022-09-10T08:22:26.086Z,3.03
2022-09-10T08:24:57.127Z,1.90
2022-09-10T08:27:29.408Z,1.55
2022-09-10T08:29:57.745Z,3.15
2022-09-10T08:32:24.574Z,2.30
2022-09-10T08:34:52.667Z,3.30
2022-09-10T08:37:19.744Z,1.27
2022-09-10T08:39:47.823Z,2.25
2022-09-10T08:42:23.834Z,3.17
2022-09-10T08:44:54.659Z,1.85
2022-09-10T08:47:56.025Z,2.75
2022-09-10T08:50:28.147Z,3.25
2022-09-10T08:53:01.144Z,2.45
2022-09-10T08:55:32.024Z,2.78
2022-09-10T08:58:19.127Z,1.20
2022-09-10T09:00:54.787Z,2.55
2022-09-10T09:03:32.228Z,2.92
2022-09-10T09:06:05.758Z,2.22
2022-09-10T09:08:48.824Z,5.18
2022-09-10T09:11:44.892Z,1.70
2022-09-10T09:14:39.689Z,2.65
2022-09-10T09:17:43.937Z,2.65
2022-09-10T09:20:18.382Z,2.28
2022-09-10T09:23:03.629Z,1.45
2022-09-10T09:25:41.589Z,4.95
2022-09-10T09:28:15.453Z,5.95
2022-09-10T09:30:49.466Z,1.58
2022-09-10T09:33:21.233Z,2.70
2022-09-10T09:35:54.159Z,2.85
2022-09-10T09:38:25.179Z,2.03
2022-09-10T09:40:58.904Z,2.40
2022-09-10T09:43:36.597Z,2.92
2022-09-10T09:46:06.826Z,1.80
2022-09-10T09:48:40.984Z,2.05
2022-09-10T09:51:13.155Z,3.67
2022-09-10T09:53:42.351Z,3.83
2022-09-10T09:56:24.782Z,1.77
2022-09-10T09:58:52.346Z,2.17
2022-09-10T10:01:24.099Z,2.67
2022-09-10T10:04:03.132Z,2.33
2022-09-10T10:06:32.695Z,4.68
2022-09-10T10:09:02.201Z,2.72
2022-09-10T10:11:49.249Z,1.27
2022-09-10T10:14:32.571Z,2.22
2022-09-10T10:17:01.064Z,2.45
2022-09-10T10:19:34.471Z,2.15
2022-09-10T10:22:19.774Z,2.13
2022-09-10T10:24:49.538Z,2.75
2022-09-10T10:27:25.622Z,9.20
2022-09-10T10:30:07.723Z,1.60
2022-09-10T10:32:44.770Z,1.65
2022-09-10T10:35:29.762Z,2.13
2022-09-10T10:38:13.930Z,1.55
2022-09-10T10:40:50.923Z,3.88
2022-09-10T10:43:32.789Z,2.33
2022-09-10T10:46:12.030Z,1.60
2022-09-10T10:49:03.564Z,3.13
2022-09-10T10:52:00.483Z,1.45
2022-09-10T10:54:42.620Z,2.33
2022-09-10T10:57:12.185Z,3.03
2022-09-10T10:59:47.976Z,1.85
2022-09-10T11:02:53.266Z,4.68
2022-09-10T11:05:45.111Z,2.13
2022-09-10T11:08:19.555Z,4.07
2022-09-10T11:10:54.768Z,3.85
2022-09-10T11:13:24.628Z,1.48
2022-09-10T11:15:56.164Z,1.40
2022-09-10T11:18:25.230Z,2.65
2022-09-10T11:20:54.770Z,2.55
2022-09-10T11:23:29.055Z,1.60
2022-09-10T11:26:13.611Z,1.10
2022-09-10T11:29:08.082Z,1.30
2022-09-10T11:31:42.876Z,3.42
2022-09-10T11:34:33.091Z,1.35
2022-09-10T11:37:07.135Z,1.25
2022-09-10T11:39:35.731Z,2.53
2022-09-10T11:42:22.529Z,5.20
2022-09-10T11:45:19.781Z,1.65
2022-09-10T11:48:00.391Z,1.73
2022-09-10T11:50:38.135Z,0.98
2022-09-10T11:53:07.697Z,1.67
2022-09-10T11:55:58.165Z,1.65
2022-09-10T11:58:43.455Z,1.27
2022-09-10T12:01:19.396Z,1.00
2022-09-10T12:04:05.781Z,2.95
2022-09-10T12:07:10.795Z,2.85
2022-09-10T12:10:13.619Z,1.98
2022-09-10T12:12:53.419Z,1.38
2022-09-10T12:15:26.020Z,1.25
2022-09-10T12:18:00.055Z,1.52
2022-09-10T12:20:42.454Z,2.08
2022-09-10T12:23:18.138Z,1.38
2022-09-10T12:25:45.585Z,1.13
2022-09-10T12:28:45.852Z,1.70
2022-09-10T12:31:15.537Z,3.28
2022-09-10T12:33:42.609Z,1.40
2022-09-10T12:36:14.378Z,1.65
2022-09-10T12:39:18.844Z,1.92
2022-09-10T12:41:45.576Z,1.50
2022-09-10T12:44:27.619Z,2.80
2022-09-10T12:47:16.696Z,1.02
2022-09-10T12:49:48.315Z,1.70
2022-09-10T12:52:23.218Z,1.90
2022-09-10T12:55:18.761Z,1.88
2022-09-10T12:58:24.232Z,1.17
2022-09-10T13:00:54.066Z,1.20
2022-09-10T13:03:22.371Z,1.80
2022-09-10T13:05:53.384Z,2.00
2022-09-10T13:08:28.250Z,2.10
2022-09-10T13:11:02.543Z,2.25
2022-09-10T13:13:43.953Z,3.72
2022-09-10T13:16:38.388Z,1.83
2022-09-10T13:19:14.239Z,1.88
2022-09-10T13:21:41.361Z,2.55
2022-09-10T13:24:36.416Z,1.38
2022-09-10T13:27:03.396Z,2.38
2022-09-10T13:29:52.764Z,1.38
2022-09-10T13:32:34.754Z,2.05
2022-09-10T13:35:29.766Z,3.03
2022-09-10T13:38:08.909Z,1.70
2022-09-10T13:41:13.532Z,1.35
2022-09-10T13:44:01.353Z,2.63
2022-09-10T13:46:41.904Z,1.17
2022-09-10T13:49:19.896Z,2.25
2022-09-10T13:51:52.153Z,2.67
2022-09-10T13:54:40.008Z,1.75
2022-09-10T13:57:26.539Z,1.38
2022-09-10T14:00:11.493Z,2.20
2022-09-10T14:02:58.939Z,2.05
2022-09-10T14:05:26.739Z,0.75
2022-09-10T14:07:55.711Z,1.48
2022-09-10T14:10:22.669Z,1.63
2022-09-10T14:12:50.298Z,2.05
2022-09-10T14:15:20.666Z,1.02
2022-09-10T14:17:51.143Z,2.10
2022-09-10T14:20:18.667Z,1.50
2022-09-10T14:22:45.517Z,0.90
2022-09-10T14:25:37.401Z,1.45
2022-09-10T14:28:16.327Z,2.72
2022-09-10T14:30:44.488Z,2.58
2022-09-10T14:33:33.320Z,1.15
2022-09-10T14:36:33.867Z,4.82
2022-09-10T14:39:18.239Z,2.97
2022-09-10T14:41:45.613Z,2.20
2022-09-10T14:44:22.523Z,1.45
2022-09-10T14:46:57.489Z,2.25
2022-09-10T14:49:32.234Z,2.85
2022-09-10T14:51:59.981Z,1.15
2022-09-10T14:54:28.707Z,1.48
2022-09-10T14:57:02.556Z,5.22
2022-09-10T14:59:33.212Z,4.10
2022-09-10T15:02:01.462Z,1.98
2022-09-10T15:04:30.269Z,2.13
2022-09-10T15:06:58.472Z,1.80
2022-09-10T15:09:27.396Z,4.35
2022-09-10T15:12:06.469Z,2.17
2022-09-10T15:14:33.789Z,9.73
2022-09-10T15:17:01.031Z,2.97
2022-09-10T15:19:28.132Z,19.85
2022-09-10T15:21:57.731Z,6.20
2022-09-10T15:24:25.483Z,3.17
2022-09-10T15:26:52.724Z,2.38
2022-09-10T15:29:19.842Z,2.17
2022-09-10T15:31:47.199Z,2.38
2022-09-10T15:34:14.465Z,2.17
2022-09-10T15:36:42.068Z,3.55
2022-09-10T15:39:11.786Z,1.42
2022-09-10T15:41:43.161Z,1.60
2022-09-10T15:44:10.353Z,2.03
2022-09-10T15:46:40.833Z,3.42
2022-09-10T15:49:08.170Z,3.35
2022-09-10T15:51:34.931Z,1.98
2022-09-10T15:54:04.904Z,1.15
2022-09-10T15:56:32.727Z,3.63
2022-09-10T15:58:59.876Z,2.88
2022-09-10T16:01:29.004Z,3.60
2022-09-10T16:03:57.692Z,2.92
2022-09-10T16:06:27.517Z,4.05
2022-09-10T16:08:57.580Z,2.83
2022-09-10T16:11:25.356Z,4.03
2022-09-10T16:13:52.580Z,3.42
2022-09-10T16:16:23.930Z,3.33
2022-09-10T16:18:56.270Z,3.83
2022-09-10T16:21:26.276Z,7.05
2022-09-10T16:23:55.542Z,3.92
2022-09-10T16:26:24.573Z,2.60
2022-09-10T16:28:59.150Z,2.75
2022-09-10T16:31:28.465Z,3.33
2022-09-10T16:33:57.627Z,2.38
2022-09-10T16:36:25.128Z,3.75
2022-09-10T16:38:56.063Z,2.58
2022-09-10T16:41:23.813Z,4.18
2022-09-10T16:43:50.793Z,3.30
2022-09-10T16:46:18.301Z,5.93
2022-09-10T16:48:45.575Z,4.97
2022-09-10T16:51:14.408Z,4.68
2022-09-10T16:53:42.774Z,5.88
2022-09-10T16:56:12.859Z,5.55
2022-09-10T16:58:41.423Z,4.13
2022-09-10T17:01:09.556Z,3.70
2022-09-10T17:03:41.048Z,3.88
2022-09-10T17:06:15.035Z,2.42
2022-09-10T17:08:42.259Z,3.30
2022-09-10T17:11:10.011Z,3.53
2022-09-10T17:13:37.840Z,6.07
2022-09-10T17:16:16.837Z,6.60
2022-09-10T17:18:44.653Z,6.15
2022-09-10T17:21:11.731Z,7.45
2022-09-10T17:23:38.635Z,6.28
2022-09-10T17:26:06.808Z,5.50
2022-09-10T17:28:33.704Z,6.88
2022-09-10T17:31:00.769Z,5.03
2022-09-10T17:33:28.276Z,5.90
2022-09-10T17:35:56.848Z,3.78
2022-09-10T17:38:25.078Z,4.30
2022-09-10T17:41:01.513Z,4.60
2022-09-10T17:43:29.687Z,6.68
2022-09-10T17:45:56.492Z,4.45
2022-09-10T17:48:27.582Z,3.83
2022-09-10T17:50:55.068Z,4.15
2022-09-10T17:53:21.875Z,5.55
2022-09-10T17:55:48.711Z,6.53
2022-09-10T17:58:16.720Z,7.32
2022-09-10T18:00:48.875Z,8.10
2022-09-10T18:03:17.754Z,9.80
2022-09-10T18:05:46.245Z,12.98
2022-09-10T18:08:13.431Z,10.80
2022-09-10T18:10:40.439Z,9.38
2022-09-10T18:13:08.325Z,6.97
2022-09-10T18:15:40.417Z,7.88
2022-09-10T18:18:07.199Z,8.20
2022-09-10T18:20:33.966Z,6.47
2022-09-10T18:23:01.259Z,6.07
2022-09-10T18:25:32.145Z,5.35
2022-09-10T18:28:01.571Z,6.88
2022-09-10T18:30:29.438Z,10.23
2022-09-10T18:32:56.433Z,9.30
2022-09-10T18:35:23.792Z,15.43
2022-09-10T18:37:51.882Z,12.02
2022-09-10T18:40:19.785Z,14.88
2022-09-10T18:42:47.951Z,16.13
2022-09-10T18:45:14.823Z,19.50
2022-09-10T18:47:44.845Z,33.63
2022-09-10T18:50:13.346Z,27.73
2022-09-10T18:52:40.175Z,29.92
2022-09-10T18:55:07.320Z,27.55
2022-09-10T18:57:34.235Z,22.58
2022-09-10T19:00:01.286Z,17.17
2022-09-10T19:02:28.102Z,21.13
2022-09-10T19:05:10.760Z,19.88
2022-09-10T19:07:38.754Z,18.45
2022-09-10T19:10:07.257Z,22.48
2022-09-10T19:12:34.093Z,19.63
2022-09-10T19:15:01.023Z,18.10
2022-09-10T19:17:27.822Z,21.73
2022-09-10T19:19:54.663Z,25.08
2022-09-10T19:22:22.340Z,23.35
2022-09-10T19:24:56.534Z,24.20
2022-09-10T19:27:24.415Z,24.02
2022-09-10T19:29:52.046Z,22.23
2022-09-10T19:32:20.403Z,26.35
2022-09-10T19:34:52.082Z,21.60
2022-09-10T19:37:19.899Z,22.40
2022-09-10T19:39:47.704Z,19.52
2022-09-10T19:42:14.502Z,19.73
2022-09-10T19:44:41.183Z,20.13
2022-09-10T19:47:07.952Z,20.65
2022-09-10T19:49:34.628Z,16.98
2022-09-10T19:52:01.770Z,15.15
2022-09-10T19:54:30.488Z,14.93
2022-09-10T19:57:00.158Z,18.80
2022-09-10T19:59:27.039Z,23.05
2022-09-10T20:01:53.874Z,24.30
2022-09-10T20:04:21.349Z,26.52
2022-09-10T20:06:50.442Z,26.80
2022-09-10T20:09:17.350Z,27.23
2022-09-10T20:11:44.215Z,26.60
2022-09-10T20:14:13.622Z,21.45
2022-09-10T20:16:42.998Z,19.73
2022-09-10T20:19:11.365Z,17.05
2022-09-10T20:21:38.170Z,14.85
2022-09-10T20:24:07.279Z,18.45
2022-09-10T20:26:38.059Z,15.13
2022-09-10T20:29:12.276Z,13.18
2022-09-10T20:31:41.310Z,18.10
2022-09-10T20:34:14.246Z,11.25
2022-09-10T20:36:44.423Z,12.75
2022-09-10T20:39:16.368Z,12.32
2022-09-10T20:41:43.981Z,11.98
2022-09-10T20:44:13.167Z,11.70
2022-09-10T20:46:41.558Z,12.00
2022-09-10T20:49:10.511Z,13.73
2022-09-10T20:51:38.951Z,13.32
2022-09-10T20:54:08.309Z,13.57
2022-09-10T20:56:35.073Z,14.20
2022-09-10T20:59:02.122Z,13.27
2022-09-10T21:01:31.299Z,14.15
2022-09-10T21:03:59.575Z,14.23
2022-09-10T21:06:28.423Z,15.48
2022-09-10T21:08:57.980Z,14.65
2022-09-10T21:11:26.934Z,18.30
2022-09-10T21:13:56.124Z,16.33
2022-09-10T21:16:25.275Z,19.02
2022-09-10T21:18:54.886Z,22.42
2022-09-10T21:21:25.556Z,20.95
2022-09-10T21:24:19.697Z,19.60
2022-09-10T21:26:46.391Z,18.90
2022-09-10T21:29:18.527Z,19.42
2022-09-10T21:31:46.032Z,19.17
2022-09-10T21:34:13.845Z,17.25
2022-09-10T21:36:41.401Z,14.48
2022-09-10T21:39:12.787Z,13.50
2022-09-10T21:41:42.647Z,14.13
2022-09-10T21:44:14.567Z,12.57
2022-09-10T21:46:45.450Z,13.15
2022-09-10T21:49:13.057Z,12.88
2022-09-10T21:51:40.558Z,12.07
2022-09-10T21:54:07.786Z,10.02
2022-09-10T21:56:34.605Z,13.40
2022-09-10T21:59:01.463Z,11.30
2022-09-10T22:01:30.789Z,13.32
2022-09-10T22:04:00.602Z,11.35
2022-09-10T22:06:29.732Z,10.93
2022-09-10T22:08:58.563Z,12.45
2022-09-10T22:11:30.348Z,11.77
2022-09-10T22:14:02.398Z,16.65
2022-09-10T22:16:31.318Z,15.00
2022-09-10T22:19:00.488Z,13.77
2022-09-10T22:21:27.643Z,14.20
2022-09-10T22:23:54.457Z,13.63
2022-09-10T22:26:24.223Z,15.75
2022-09-10T22:28:54.782Z,13.02
2022-09-10T22:31:23.718Z,13.18
2022-09-10T22:33:59.072Z,11.77
2022-09-10T22:36:29.025Z,10.55
2022-09-10T22:39:06.665Z,10.68
2022-09-10T22:41:34.962Z,7.57
2022-09-10T22:44:02.623Z,9.90
2022-09-10T22:46:29.825Z,8.23
2022-09-10T22:48:56.795Z,8.77
2022-09-10T22:51:26.013Z,9.45
2022-09-10T22:53:53.635Z,11.15
2022-09-10T22:56:22.289Z,9.00
2022-09-10T22:58:52.323Z,11.77
2022-09-10T23:01:21.584Z,9.18
2022-09-10T23:03:48.652Z,9.65
2022-09-10T23:06:20.516Z,8.32
2022-09-10T23:08:50.489Z,12.48
2022-09-10T23:11:21.212Z,6.85
2022-09-10T23:13:54.025Z,8.13
2022-09-10T23:16:26.324Z,12.68
2022-09-10T23:18:55.228Z,12.32
2022-09-10T23:21:24.067Z,8.90
2022-09-10T23:23:53.705Z,8.82
2022-09-10T23:26:21.818Z,9.68
2022-09-10T23:28:48.939Z,6.78
2022-09-10T23:31:20.895Z,8.20
2022-09-10T23:33:59.246Z,7.15
2022-09-10T23:36:33.090Z,9.48
2022-09-10T23:39:00.636Z,13.40
2022-09-10T23:41:27.682Z,8.95
2022-09-10T23:43:54.730Z,7.18
2022-09-10T23:46:21.716Z,9.07
2022-09-10T23:48:49.501Z,7.38
2022-09-10T23:51:20.479Z,9.52
2022-09-10T23:53:48.357Z,7.15
2022-09-10T23:56:19.741Z,7.40
2022-09-10T23:58:47.804Z,9.32
